sensor_id;sensor_type;location;lat;lon;timestamp;P1;durP1;ratioP1;P2;durP2;ratioP2
15356;SDS011;7778;48.792;9.260;2023-05-10T00:01:46;1.08;;;0.90;;
15356;SDS011;7778;48.792;9.260;2023-05-10T00:04:32;4.22;;;1.45;;
15356;SDS011;7778;48.792;9.260;2023-05-10T00:07:18;1.15;;;1.13;;
15356;SDS011;7778;48.792;9.260;2023-05-10T00:10:03;1.33;;;1.10;;
15356;SDS011;7778;48.792;9.260;2023-05-10T00:12:50;2.55;;;1.45;;
15356;SDS011;7778;48.792;9.260;2023-05-10T00:15:36;2.30;;;1.08;;
15356;SDS011;7778;48.792;9.260;2023-05-10T00:18:23;0.77;;;0.73;;
15356;SDS011;7778;48.792;9.260;2023-05-10T00:21:08;2.17;;;1.00;;
15356;SDS011;7778;48.792;9.260;2023-05-10T00:23:54;1.27;;;0.88;;
15356;SDS011;7778;48.792;9.260;2023-05-10T00:26:40;7.30;;;2.25;;
15356;SDS011;7778;48.792;9.260;2023-05-10T00:29:25;0.95;;;0.80;;
15356;SDS011;7778;48.792;9.260;2023-05-10T00:32:12;0.75;;;0.75;;
15356;SDS011;7778;48.792;9.260;2023-05-10T00:34:59;0.50;;;0.50;;
15356;SDS011;7778;48.792;9.260;2023-05-10T00:37:45;0.15;;;0.15;;
15356;SDS011;7778;48.792;9.260;2023-05-10T00:40:31;0.40;;;0.40;;
15356;SDS011;7778;48.792;9.260;2023-05-10T00:43:16;0.55;;;0.35;;
15356;SDS011;7778;48.792;9.260;2023-05-10T00:46:02;0.10;;;0.10;;
15356;SDS011;7778;48.792;9.260;2023-05-10T00:48:48;1.77;;;0.25;;
15356;SDS011;7778;48.792;9.260;2023-05-10T00:51:35;0.45;;;0.38;;
15356;SDS011;7778;48.792;9.260;2023-05-10T00:54:21;0.10;;;0.10;;
15356;SDS011;7778;48.792;9.260;2023-05-10T00:57:07;0.40;;;0.30;;
15356;SDS011;7778;48.792;9.260;2023-05-10T00:59:52;0.20;;;0.20;;
15356;SDS011;7778;48.792;9.260;2023-05-10T01:02:38;0.43;;;0.15;;
15356;SDS011;7778;48.792;9.260;2023-05-10T01:05:25;0.43;;;0.20;;
15356;SDS011;7778;48.792;9.260;2023-05-10T01:15:35;0.10;;;0.10;;
15356;SDS011;7778;48.792;9.260;2023-05-10T01:18:22;0.10;;;0.10;;
15356;SDS011;7778;48.792;9.260;2023-05-10T01:21:14;0.28;;;0.17;;
15356;SDS011;7778;48.792;9.260;2023-05-10T01:24:20;0.55;;;0.20;;
15356;SDS011;7778;48.792;9.260;2023-05-10T01:27:45;0.08;;;0.08;;
15356;SDS011;7778;48.792;9.260;2023-05-10T01:31:03;0.30;;;0.30;;
15356;SDS011;7778;48.792;9.260;2023-05-10T01:34:09;0.82;;;0.10;;
15356;SDS011;7778;48.792;9.260;2023-05-10T01:37:02;2.55;;;0.20;;
15356;SDS011;7778;48.792;9.260;2023-05-10T01:39:55;0.15;;;0.15;;
15356;SDS011;7778;48.792;9.260;2023-05-10T01:42:49;0.63;;;0.40;;
15356;SDS011;7778;48.792;9.260;2023-05-10T01:45:39;0.30;;;0.30;;
15356;SDS011;7778;48.792;9.260;2023-05-10T01:48:34;1.00;;;0.40;;
15356;SDS011;7778;48.792;9.260;2023-05-10T01:51:23;0.50;;;0.50;;
15356;SDS011;7778;48.792;9.260;2023-05-10T01:54:13;0.32;;;0.32;;
15356;SDS011;7778;48.792;9.260;2023-05-10T01:57:03;0.50;;;0.40;;
15356;SDS011;7778;48.792;9.260;2023-05-10T01:59:53;0.20;;;0.20;;
15356;SDS011;7778;48.792;9.260;2023-05-10T02:02:40;0.40;;;0.40;;
15356;SDS011;7778;48.792;9.260;2023-05-10T02:05:32;0.20;;;0.20;;
15356;SDS011;7778;48.792;9.260;2023-05-10T02:08:20;0.68;;;0.40;;
15356;SDS011;7778;48.792;9.260;2023-05-10T02:11:07;0.25;;;0.20;;
15356;SDS011;7778;48.792;9.260;2023-05-10T02:13:56;0.40;;;0.40;;
15356;SDS011;7778;48.792;9.260;2023-05-10T02:16:43;0.45;;;0.30;;
15356;SDS011;7778;48.792;9.260;2023-05-10T02:19:31;0.52;;;0.52;;
15356;SDS011;7778;48.792;9.260;2023-05-10T02:22:18;0.40;;;0.40;;
15356;SDS011;7778;48.792;9.260;2023-05-10T02:25:07;1.65;;;0.60;;
15356;SDS011;7778;48.792;9.260;2023-05-10T02:27:55;1.45;;;0.30;;
15356;SDS011;7778;48.792;9.260;2023-05-10T02:30:43;0.50;;;0.50;;
15356;SDS011;7778;48.792;9.260;2023-05-10T02:33:29;0.40;;;0.30;;
15356;SDS011;7778;48.792;9.260;2023-05-10T02:36:16;0.35;;;0.35;;
15356;SDS011;7778;48.792;9.260;2023-05-10T02:39:02;0.28;;;0.28;;
15356;SDS011;7778;48.792;9.260;2023-05-10T02:41:50;0.40;;;0.40;;
15356;SDS011;7778;48.792;9.260;2023-05-10T02:44:37;0.40;;;0.30;;
15356;SDS011;7778;48.792;9.260;2023-05-10T02:47:25;0.30;;;0.30;;
15356;SDS011;7778;48.792;9.260;2023-05-10T02:50:11;0.55;;;0.50;;
15356;SDS011;7778;48.792;9.260;2023-05-10T02:52:59;1.45;;;1.35;;
15356;SDS011;7778;48.792;9.260;2023-05-10T02:55:50;0.30;;;0.30;;
15356;SDS011;7778;48.792;9.260;2023-05-10T02:58:38;0.88;;;0.40;;
15356;SDS011;7778;48.792;9.260;2023-05-10T03:01:24;1.10;;;0.57;;
15356;SDS011;7778;48.792;9.260;2023-05-10T03:04:10;0.60;;;0.38;;
15356;SDS011;7778;48.792;9.260;2023-05-10T03:06:55;1.75;;;0.22;;
15356;SDS011;7778;48.792;9.260;2023-05-10T03:09:41;0.88;;;0.20;;
15356;SDS011;7778;48.792;9.260;2023-05-10T03:12:31;1.25;;;0.40;;
15356;SDS011;7778;48.792;9.260;2023-05-10T03:15:33;0.90;;;0.57;;
15356;SDS011;7778;48.792;9.260;2023-05-10T03:18:28;5.43;;;0.65;;
15356;SDS011;7778;48.792;9.260;2023-05-10T03:21:19;0.35;;;0.35;;
15356;SDS011;7778;48.792;9.260;2023-05-10T03:24:11;1.70;;;0.30;;
15356;SDS011;7778;48.792;9.260;2023-05-10T03:26:59;0.30;;;0.30;;
15356;SDS011;7778;48.792;9.260;2023-05-10T03:29:46;0.60;;;0.43;;
15356;SDS011;7778;48.792;9.260;2023-05-10T03:32:34;0.65;;;0.50;;
15356;SDS011;7778;48.792;9.260;2023-05-10T03:35:20;1.27;;;0.65;;
15356;SDS011;7778;48.792;9.260;2023-05-10T03:38:06;1.10;;;0.75;;
15356;SDS011;7778;48.792;9.260;2023-05-10T03:40:51;0.90;;;0.60;;
15356;SDS011;7778;48.792;9.260;2023-05-10T03:43:37;0.40;;;0.40;;
15356;SDS011;7778;48.792;9.260;2023-05-10T03:46:23;0.95;;;0.65;;
15356;SDS011;7778;48.792;9.260;2023-05-10T03:49:10;0.98;;;0.50;;
15356;SDS011;7778;48.792;9.260;2023-05-10T03:51:55;2.38;;;0.70;;
15356;SDS011;7778;48.792;9.260;2023-05-10T03:54:41;0.50;;;0.50;;
15356;SDS011;7778;48.792;9.260;2023-05-10T03:57:26;0.70;;;0.70;;
15356;SDS011;7778;48.792;9.260;2023-05-10T04:00:12;0.65;;;0.60;;
15356;SDS011;7778;48.792;9.260;2023-05-10T04:02:59;1.63;;;0.75;;
15356;SDS011;7778;48.792;9.260;2023-05-10T04:05:45;1.00;;;0.65;;
15356;SDS011;7778;48.792;9.260;2023-05-10T04:08:31;1.50;;;0.93;;
15356;SDS011;7778;48.792;9.260;2023-05-10T04:11:16;1.75;;;0.70;;
15356;SDS011;7778;48.792;9.260;2023-05-10T04:14:02;1.67;;;1.17;;
15356;SDS011;7778;48.792;9.260;2023-05-10T04:16:47;1.60;;;1.30;;
15356;SDS011;7778;48.792;9.260;2023-05-10T04:19:33;4.47;;;1.30;;
15356;SDS011;7778;48.792;9.260;2023-05-10T04:22:20;1.17;;;1.08;;
15356;SDS011;7778;48.792;9.260;2023-05-10T04:25:06;1.98;;;1.10;;
15356;SDS011;7778;48.792;9.260;2023-05-10T04:27:53;1.60;;;1.33;;
15356;SDS011;7778;48.792;9.260;2023-05-10T04:30:38;1.23;;;1.13;;
15356;SDS011;7778;48.792;9.260;2023-05-10T04:33:25;1.17;;;0.90;;
15356;SDS011;7778;48.792;9.260;2023-05-10T04:36:10;0.88;;;0.75;;
15356;SDS011;7778;48.792;9.260;2023-05-10T04:38:57;2.08;;;1.30;;
15356;SDS011;7778;48.792;9.260;2023-05-10T04:41:43;1.23;;;0.93;;
15356;SDS011;7778;48.792;9.260;2023-05-10T04:44:28;2.55;;;1.00;;
15356;SDS011;7778;48.792;9.260;2023-05-10T04:47:14;0.98;;;0.82;;
15356;SDS011;7778;48.792;9.260;2023-05-10T04:49:59;3.88;;;1.40;;
15356;SDS011;7778;48.792;9.260;2023-05-10T04:52:45;1.45;;;1.25;;
15356;SDS011;7778;48.792;9.260;2023-05-10T04:55:32;1.60;;;1.02;;
15356;SDS011;7778;48.792;9.260;2023-05-10T04:58:18;4.05;;;1.40;;
15356;SDS011;7778;48.792;9.260;2023-05-10T05:01:07;1.83;;;1.27;;
15356;SDS011;7778;48.792;9.260;2023-05-10T05:03:54;2.92;;;1.60;;
15356;SDS011;7778;48.792;9.260;2023-05-10T05:06:40;1.85;;;1.15;;
15356;SDS011;7778;48.792;9.260;2023-05-10T05:09:25;1.67;;;1.00;;
15356;SDS011;7778;48.792;9.260;2023-05-10T05:12:12;1.42;;;1.05;;
15356;SDS011;7778;48.792;9.260;2023-05-10T05:14:58;2.15;;;1.00;;
15356;SDS011;7778;48.792;9.260;2023-05-10T05:17:43;2.72;;;1.17;;
15356;SDS011;7778;48.792;9.260;2023-05-10T05:20:31;3.40;;;1.02;;
15356;SDS011;7778;48.792;9.260;2023-05-10T05:23:17;2.97;;;0.95;;
15356;SDS011;7778;48.792;9.260;2023-05-10T05:26:04;0.80;;;0.80;;
15356;SDS011;7778;48.792;9.260;2023-05-10T05:28:51;1.15;;;1.00;;
15356;SDS011;7778;48.792;9.260;2023-05-10T05:31:38;2.60;;;1.20;;
15356;SDS011;7778;48.792;9.260;2023-05-10T05:34:23;1.00;;;0.75;;
15356;SDS011;7778;48.792;9.260;2023-05-10T05:37:12;1.27;;;0.75;;
15356;SDS011;7778;48.792;9.260;2023-05-10T05:39:59;1.70;;;1.13;;
15356;SDS011;7778;48.792;9.260;2023-05-10T05:42:45;0.98;;;0.90;;
15356;SDS011;7778;48.792;9.260;2023-05-10T05:45:32;2.60;;;0.93;;
15356;SDS011;7778;48.792;9.260;2023-05-10T05:48:17;1.05;;;0.90;;
15356;SDS011;7778;48.792;9.260;2023-05-10T05:51:03;4.20;;;1.00;;
15356;SDS011;7778;48.792;9.260;2023-05-10T05:53:49;1.27;;;0.80;;
15356;SDS011;7778;48.792;9.260;2023-05-10T05:56:35;2.90;;;0.95;;
15356;SDS011;7778;48.792;9.260;2023-05-10T05:59:21;1.25;;;0.77;;
15356;SDS011;7778;48.792;9.260;2023-05-10T06:02:08;1.50;;;0.90;;
15356;SDS011;7778;48.792;9.260;2023-05-10T06:04:55;0.70;;;0.70;;
15356;SDS011;7778;48.792;9.260;2023-05-10T06:07:41;1.05;;;0.70;;
15356;SDS011;7778;48.792;9.260;2023-05-10T06:10:26;1.35;;;0.95;;
15356;SDS011;7778;48.792;9.260;2023-05-10T06:13:12;2.33;;;0.85;;
15356;SDS011;7778;48.792;9.260;2023-05-10T06:15:57;3.20;;;1.45;;
15356;SDS011;7778;48.792;9.260;2023-05-10T06:18:45;3.15;;;1.00;;
15356;SDS011;7778;48.792;9.260;2023-05-10T06:21:30;2.10;;;1.90;;
15356;SDS011;7778;48.792;9.260;2023-05-10T06:24:16;2.50;;;0.70;;
15356;SDS011;7778;48.792;9.260;2023-05-10T06:27:01;1.00;;;1.00;;
15356;SDS011;7778;48.792;9.260;2023-05-10T06:29:47;1.98;;;1.10;;
15356;SDS011;7778;48.792;9.260;2023-05-10T06:32:33;0.88;;;0.68;;
15356;SDS011;7778;48.792;9.260;2023-05-10T06:35:20;0.98;;;0.90;;
15356;SDS011;7778;48.792;9.260;2023-05-10T06:38:06;1.42;;;1.05;;
15356;SDS011;7778;48.792;9.260;2023-05-10T06:40:51;1.67;;;1.00;;
15356;SDS011;7778;48.792;9.260;2023-05-10T06:43:37;0.80;;;0.80;;
15356;SDS011;7778;48.792;9.260;2023-05-10T06:46:24;1.85;;;1.17;;
15356;SDS011;7778;48.792;9.260;2023-05-10T06:49:10;1.08;;;0.98;;
15356;SDS011;7778;48.792;9.260;2023-05-10T06:51:57;1.38;;;1.27;;
15356;SDS011;7778;48.792;9.260;2023-05-10T06:54:43;1.88;;;1.40;;
15356;SDS011;7778;48.792;9.260;2023-05-10T06:57:28;1.15;;;0.98;;
15356;SDS011;7778;48.792;9.260;2023-05-10T07:00:14;1.17;;;1.08;;
15356;SDS011;7778;48.792;9.260;2023-05-10T07:03:01;1.70;;;1.20;;
15356;SDS011;7778;48.792;9.260;2023-05-10T07:05:46;1.63;;;1.08;;
15356;SDS011;7778;48.792;9.260;2023-05-10T07:08:33;1.95;;;1.67;;
15356;SDS011;7778;48.792;9.260;2023-05-10T07:11:19;2.50;;;1.45;;
15356;SDS011;7778;48.792;9.260;2023-05-10T07:14:05;3.88;;;1.48;;
15356;SDS011;7778;48.792;9.260;2023-05-10T07:16:50;2.00;;;1.20;;
15356;SDS011;7778;48.792;9.260;2023-05-10T07:19:36;2.25;;;1.45;;
15356;SDS011;7778;48.792;9.260;2023-05-10T07:22:21;1.27;;;1.00;;
15356;SDS011;7778;48.792;9.260;2023-05-10T07:25:08;1.60;;;1.05;;
15356;SDS011;7778;48.792;9.260;2023-05-10T07:27:55;2.42;;;0.90;;
15356;SDS011;7778;48.792;9.260;2023-05-10T07:30:40;3.10;;;1.05;;
15356;SDS011;7778;48.792;9.260;2023-05-10T07:33:27;1.15;;;0.82;;
15356;SDS011;7778;48.792;9.260;2023-05-10T07:36:12;1.73;;;1.20;;
15356;SDS011;7778;48.792;9.260;2023-05-10T07:38:58;3.25;;;1.17;;
15356;SDS011;7778;48.792;9.260;2023-05-10T07:41:45;2.35;;;1.15;;
15356;SDS011;7778;48.792;9.260;2023-05-10T07:44:30;1.90;;;0.98;;
15356;SDS011;7778;48.792;9.260;2023-05-10T07:47:15;2.85;;;0.93;;
15356;SDS011;7778;48.792;9.260;2023-05-10T07:50:01;1.08;;;0.90;;
15356;SDS011;7778;48.792;9.260;2023-05-10T07:52:47;1.35;;;0.80;;
15356;SDS011;7778;48.792;9.260;2023-05-10T07:55:32;0.80;;;0.80;;
15356;SDS011;7778;48.792;9.260;2023-05-10T07:58:19;3.80;;;0.88;;
15356;SDS011;7778;48.792;9.260;2023-05-10T08:01:05;4.57;;;0.95;;
15356;SDS011;7778;48.792;9.260;2023-05-10T08:03:51;1.42;;;0.90;;
15356;SDS011;7778;48.792;9.260;2023-05-10T08:06:37;4.18;;;0.80;;
15356;SDS011;7778;48.792;9.260;2023-05-10T08:09:24;1.42;;;0.93;;
15356;SDS011;7778;48.792;9.260;2023-05-10T08:12:12;1.48;;;0.95;;
15356;SDS011;7778;48.792;9.260;2023-05-10T08:14:59;1.05;;;0.70;;
15356;SDS011;7778;48.792;9.260;2023-05-10T08:17:44;1.55;;;0.80;;
15356;SDS011;7778;48.792;9.260;2023-05-10T08:20:30;1.00;;;0.40;;
15356;SDS011;7778;48.792;9.260;2023-05-10T08:23:15;2.60;;;0.60;;
15356;SDS011;7778;48.792;9.260;2023-05-10T08:26:01;2.40;;;0.75;;
15356;SDS011;7778;48.792;9.260;2023-05-10T08:28:46;1.80;;;0.80;;
15356;SDS011;7778;48.792;9.260;2023-05-10T08:31:34;1.45;;;0.60;;
15356;SDS011;7778;48.792;9.260;2023-05-10T08:34:19;1.02;;;0.70;;
15356;SDS011;7778;48.792;9.260;2023-05-10T08:37:05;3.45;;;0.60;;
15356;SDS011;7778;48.792;9.260;2023-05-10T08:39:51;1.17;;;0.88;;
15356;SDS011;7778;48.792;9.260;2023-05-10T08:42:36;0.57;;;0.50;;
15356;SDS011;7778;48.792;9.260;2023-05-10T08:45:27;0.68;;;0.63;;
15356;SDS011;7778;48.792;9.260;2023-05-10T08:48:19;3.00;;;0.77;;
15356;SDS011;7778;48.792;9.260;2023-05-10T08:51:08;2.63;;;0.60;;
15356;SDS011;7778;48.792;9.260;2023-05-10T08:53:58;0.75;;;0.70;;
15356;SDS011;7778;48.792;9.260;2023-05-10T08:56:44;1.17;;;0.82;;
15356;SDS011;7778;48.792;9.260;2023-05-10T08:59:30;1.20;;;0.68;;
15356;SDS011;7778;48.792;9.260;2023-05-10T09:02:16;1.90;;;0.30;;
15356;SDS011;7778;48.792;9.260;2023-05-10T09:05:06;0.63;;;0.43;;
15356;SDS011;7778;48.792;9.260;2023-05-10T09:07:53;0.65;;;0.60;;
15356;SDS011;7778;48.792;9.260;2023-05-10T09:10:38;0.75;;;0.43;;
15356;SDS011;7778;48.792;9.260;2023-05-10T09:13:26;0.65;;;0.50;;
15356;SDS011;7778;48.792;9.260;2023-05-10T09:16:12;0.80;;;0.38;;
15356;SDS011;7778;48.792;9.260;2023-05-10T09:18:58;1.65;;;0.38;;
15356;SDS011;7778;48.792;9.260;2023-05-10T09:21:45;0.52;;;0.30;;
15356;SDS011;7778;48.792;9.260;2023-05-10T09:24:30;0.30;;;0.30;;
15356;SDS011;7778;48.792;9.260;2023-05-10T09:27:16;0.45;;;0.40;;
15356;SDS011;7778;48.792;9.260;2023-05-10T09:30:02;0.60;;;0.30;;
15356;SDS011;7778;48.792;9.260;2023-05-10T09:32:49;0.40;;;0.40;;
15356;SDS011;7778;48.792;9.260;2023-05-10T09:35:35;0.30;;;0.30;;
15356;SDS011;7778;48.792;9.260;2023-05-10T09:38:25;1.55;;;0.52;;
15356;SDS011;7778;48.792;9.260;2023-05-10T09:41:15;0.55;;;0.40;;
15356;SDS011;7778;48.792;9.260;2023-05-10T09:44:02;4.55;;;1.30;;
15356;SDS011;7778;48.792;9.260;2023-05-10T09:46:48;0.50;;;0.50;;
15356;SDS011;7778;48.792;9.260;2023-05-10T09:49:36;0.45;;;0.45;;
15356;SDS011;7778;48.792;9.260;2023-05-10T09:52:22;0.35;;;0.35;;
15356;SDS011;7778;48.792;9.260;2023-05-10T09:55:09;0.65;;;0.40;;
15356;SDS011;7778;48.792;9.260;2023-05-10T09:57:58;0.43;;;0.43;;
15356;SDS011;7778;48.792;9.260;2023-05-10T10:00:46;0.20;;;0.20;;
15356;SDS011;7778;48.792;9.260;2023-05-10T10:03:35;0.40;;;0.30;;
15356;SDS011;7778;48.792;9.260;2023-05-10T10:06:27;1.13;;;0.50;;
15356;SDS011;7778;48.792;9.260;2023-05-10T10:09:13;2.90;;;0.57;;
15356;SDS011;7778;48.792;9.260;2023-05-10T10:12:00;0.82;;;0.40;;
15356;SDS011;7778;48.792;9.260;2023-05-10T10:14:47;1.85;;;0.43;;
15356;SDS011;7778;48.792;9.260;2023-05-10T10:17:34;0.60;;;0.32;;
15356;SDS011;7778;48.792;9.260;2023-05-10T10:20:23;0.75;;;0.52;;
15356;SDS011;7778;48.792;9.260;2023-05-10T10:23:08;1.75;;;0.30;;
15356;SDS011;7778;48.792;9.260;2023-05-10T10:25:54;0.50;;;0.50;;
15356;SDS011;7778;48.792;9.260;2023-05-10T10:28:43;2.38;;;0.20;;
15356;SDS011;7778;48.792;9.260;2023-05-10T10:31:39;1.02;;;0.65;;
15356;SDS011;7778;48.792;9.260;2023-05-10T10:34:30;0.65;;;0.47;;
15356;SDS011;7778;48.792;9.260;2023-05-10T10:37:17;2.60;;;0.70;;
15356;SDS011;7778;48.792;9.260;2023-05-10T10:40:07;1.08;;;0.65;;
15356;SDS011;7778;48.792;9.260;2023-05-10T10:43:21;0.80;;;0.63;;
15356;SDS011;7778;48.792;9.260;2023-05-10T10:46:13;1.35;;;0.38;;
15356;SDS011;7778;48.792;9.260;2023-05-10T10:49:08;2.05;;;0.73;;
15356;SDS011;7778;48.792;9.260;2023-05-10T10:55:12;0.30;;;0.30;;
15356;SDS011;7778;48.792;9.260;2023-05-10T10:58:00;1.38;;;0.47;;
15356;SDS011;7778;48.792;9.260;2023-05-10T11:00:48;1.35;;;0.47;;
15356;SDS011;7778;48.792;9.260;2023-05-10T11:03:35;0.38;;;0.38;;
15356;SDS011;7778;48.792;9.260;2023-05-10T11:06:28;0.68;;;0.68;;
15356;SDS011;7778;48.792;9.260;2023-05-10T11:09:15;1.50;;;0.80;;
15356;SDS011;7778;48.792;9.260;2023-05-10T11:12:07;5.25;;;0.50;;
15356;SDS011;7778;48.792;9.260;2023-05-10T11:14:56;1.45;;;0.30;;
15356;SDS011;7778;48.792;9.260;2023-05-10T11:17:42;0.40;;;0.20;;
15356;SDS011;7778;48.792;9.260;2023-05-10T11:20:39;0.22;;;0.22;;
15356;SDS011;7778;48.792;9.260;2023-05-10T11:23:29;0.13;;;0.13;;
15356;SDS011;7778;48.792;9.260;2023-05-10T11:26:16;0.68;;;0.57;;
15356;SDS011;7778;48.792;9.260;2023-05-10T11:29:02;0.52;;;0.35;;
15356;SDS011;7778;48.792;9.260;2023-05-10T11:31:48;1.75;;;0.70;;
15356;SDS011;7778;48.792;9.260;2023-05-10T11:34:35;2.08;;;0.47;;
15356;SDS011;7778;48.792;9.260;2023-05-10T11:37:22;0.25;;;0.20;;
15356;SDS011;7778;48.792;9.260;2023-05-10T11:40:08;0.50;;;0.32;;
15356;SDS011;7778;48.792;9.260;2023-05-10T11:42:55;4.55;;;0.70;;
15356;SDS011;7778;48.792;9.260;2023-05-10T11:45:41;1.25;;;0.30;;
15356;SDS011;7778;48.792;9.260;2023-05-10T11:48:27;0.20;;;0.20;;
15356;SDS011;7778;48.792;9.260;2023-05-10T11:51:14;2.88;;;0.50;;
15356;SDS011;7778;48.792;9.260;2023-05-10T11:54:02;0.50;;;0.47;;
15356;SDS011;7778;48.792;9.260;2023-05-10T11:56:52;0.40;;;0.40;;
15356;SDS011;7778;48.792;9.260;2023-05-10T11:59:37;0.20;;;0.20;;
15356;SDS011;7778;48.792;9.260;2023-05-10T12:02:24;4.80;;;0.90;;
15356;SDS011;7778;48.792;9.260;2023-05-10T12:05:09;0.73;;;0.60;;
15356;SDS011;7778;48.792;9.260;2023-05-10T12:08:10;0.65;;;0.65;;
15356;SDS011;7778;48.792;9.260;2023-05-10T12:11:05;3.22;;;1.20;;
15356;SDS011;7778;48.792;9.260;2023-05-10T12:13:54;1.08;;;0.77;;
15356;SDS011;7778;48.792;9.260;2023-05-10T12:16:40;1.92;;;0.68;;
15356;SDS011;7778;48.792;9.260;2023-05-10T12:19:29;1.60;;;0.80;;
15356;SDS011;7778;48.792;9.260;2023-05-10T12:22:22;3.40;;;0.70;;
15356;SDS011;7778;48.792;9.260;2023-05-10T12:25:08;3.40;;;0.90;;
15356;SDS011;7778;48.792;9.260;2023-05-10T12:27:56;6.65;;;1.05;;
15356;SDS011;7778;48.792;9.260;2023-05-10T12:30:44;9.05;;;1.33;;
15356;SDS011;7778;48.792;9.260;2023-05-10T12:33:35;1.98;;;0.60;;
15356;SDS011;7778;48.792;9.260;2023-05-10T12:36:23;1.33;;;0.63;;
15356;SDS011;7778;48.792;9.260;2023-05-10T12:39:09;1.02;;;0.50;;
15356;SDS011;7778;48.792;9.260;2023-05-10T12:41:55;0.70;;;0.68;;
15356;SDS011;7778;48.792;9.260;2023-05-10T12:44:42;2.60;;;0.77;;
15356;SDS011;7778;48.792;9.260;2023-05-10T12:47:27;2.17;;;0.80;;
15356;SDS011;7778;48.792;9.260;2023-05-10T12:50:13;3.58;;;1.13;;
15356;SDS011;7778;48.792;9.260;2023-05-10T12:52:59;1.80;;;0.82;;
15356;SDS011;7778;48.792;9.260;2023-05-10T12:55:44;3.60;;;0.60;;
15356;SDS011;7778;48.792;9.260;2023-05-10T12:58:30;3.53;;;0.75;;
15356;SDS011;7778;48.792;9.260;2023-05-10T13:01:17;2.33;;;1.08;;
15356;SDS011;7778;48.792;9.260;2023-05-10T13:04:02;2.45;;;0.70;;
15356;SDS011;7778;48.792;9.260;2023-05-10T13:06:48;0.65;;;0.43;;
15356;SDS011;7778;48.792;9.260;2023-05-10T13:09:33;0.50;;;0.40;;
15356;SDS011;7778;48.792;9.260;2023-05-10T13:12:19;1.85;;;0.68;;
15356;SDS011;7778;48.792;9.260;2023-05-10T13:15:05;0.60;;;0.57;;
15356;SDS011;7778;48.792;9.260;2023-05-10T13:17:53;1.13;;;0.60;;
15356;SDS011;7778;48.792;9.260;2023-05-10T13:20:39;1.05;;;0.60;;
15356;SDS011;7778;48.792;9.260;2023-05-10T13:23:26;1.55;;;0.93;;
15356;SDS011;7778;48.792;9.260;2023-05-10T13:26:12;0.55;;;0.55;;
15356;SDS011;7778;48.792;9.260;2023-05-10T13:28:58;3.55;;;0.73;;
15356;SDS011;7778;48.792;9.260;2023-05-10T13:31:44;1.38;;;0.60;;
15356;SDS011;7778;48.792;9.260;2023-05-10T13:34:31;1.67;;;0.50;;
15356;SDS011;7778;48.792;9.260;2023-05-10T13:37:19;2.60;;;1.20;;
15356;SDS011;7778;48.792;9.260;2023-05-10T13:40:05;1.17;;;0.88;;
15356;SDS011;7778;48.792;9.260;2023-05-10T13:42:53;3.47;;;0.70;;
15356;SDS011;7778;48.792;9.260;2023-05-10T13:45:38;5.50;;;0.75;;
15356;SDS011;7778;48.792;9.260;2023-05-10T13:48:24;1.27;;;0.70;;
15356;SDS011;7778;48.792;9.260;2023-05-10T13:51:11;1.65;;;0.55;;
15356;SDS011;7778;48.792;9.260;2023-05-10T13:53:56;4.32;;;1.13;;
15356;SDS011;7778;48.792;9.260;2023-05-10T13:56:42;0.77;;;0.60;;
15356;SDS011;7778;48.792;9.260;2023-05-10T13:59:28;3.72;;;0.60;;
15356;SDS011;7778;48.792;9.260;2023-05-10T14:02:15;2.60;;;0.70;;
15356;SDS011;7778;48.792;9.260;2023-05-10T14:05:00;4.90;;;1.10;;
15356;SDS011;7778;48.792;9.260;2023-05-10T14:07:48;2.15;;;0.50;;
15356;SDS011;7778;48.792;9.260;2023-05-10T14:10:34;2.88;;;0.68;;
15356;SDS011;7778;48.792;9.260;2023-05-10T14:13:20;2.95;;;0.45;;
15356;SDS011;7778;48.792;9.260;2023-05-10T14:16:06;1.23;;;0.80;;
15356;SDS011;7778;48.792;9.260;2023-05-10T14:18:51;1.67;;;0.70;;
15356;SDS011;7778;48.792;9.260;2023-05-10T14:21:37;1.20;;;0.73;;
15356;SDS011;7778;48.792;9.260;2023-05-10T14:24:24;3.17;;;0.80;;
15356;SDS011;7778;48.792;9.260;2023-05-10T14:27:10;1.30;;;0.63;;
15356;SDS011;7778;48.792;9.260;2023-05-10T14:29:55;0.47;;;0.32;;
15356;SDS011;7778;48.792;9.260;2023-05-10T14:32:41;7.75;;;0.95;;
15356;SDS011;7778;48.792;9.260;2023-05-10T14:35:27;1.65;;;0.40;;
15356;SDS011;7778;48.792;9.260;2023-05-10T14:38:14;2.13;;;0.65;;
15356;SDS011;7778;48.792;9.260;2023-05-10T14:41:01;3.10;;;0.65;;
15356;SDS011;7778;48.792;9.260;2023-05-10T14:43:47;1.65;;;0.75;;
15356;SDS011;7778;48.792;9.260;2023-05-10T14:46:33;2.40;;;0.50;;
15356;SDS011;7778;48.792;9.260;2023-05-10T14:49:18;1.75;;;0.55;;
15356;SDS011;7778;48.792;9.260;2023-05-10T14:52:06;0.98;;;0.57;;
15356;SDS011;7778;48.792;9.260;2023-05-10T14:54:52;0.43;;;0.40;;
15356;SDS011;7778;48.792;9.260;2023-05-10T14:57:38;2.30;;;0.55;;
15356;SDS011;7778;48.792;9.260;2023-05-10T15:00:24;0.60;;;0.55;;
15356;SDS011;7778;48.792;9.260;2023-05-10T15:03:10;0.80;;;0.57;;
15356;SDS011;7778;48.792;9.260;2023-05-10T15:05:56;1.65;;;0.68;;
15356;SDS011;7778;48.792;9.260;2023-05-10T15:08:42;2.13;;;0.50;;
15356;SDS011;7778;48.792;9.260;2023-05-10T15:11:27;1.17;;;0.57;;
15356;SDS011;7778;48.792;9.260;2023-05-10T15:14:14;1.20;;;0.43;;
15356;SDS011;7778;48.792;9.260;2023-05-10T15:17:00;1.85;;;0.65;;
15356;SDS011;7778;48.792;9.260;2023-05-10T15:19:45;0.88;;;0.60;;
15356;SDS011;7778;48.792;9.260;2023-05-10T15:22:32;5.00;;;0.80;;
15356;SDS011;7778;48.792;9.260;2023-05-10T15:25:18;4.97;;;0.60;;
15356;SDS011;7778;48.792;9.260;2023-05-10T15:28:04;0.40;;;0.32;;
15356;SDS011;7778;48.792;9.260;2023-05-10T15:30:51;3.15;;;0.57;;
15356;SDS011;7778;48.792;9.260;2023-05-10T15:33:37;0.65;;;0.52;;
15356;SDS011;7778;48.792;9.260;2023-05-10T15:36:23;3.78;;;0.80;;
15356;SDS011;7778;48.792;9.260;2023-05-10T15:39:08;1.92;;;0.93;;
15356;SDS011;7778;48.792;9.260;2023-05-10T15:41:55;3.67;;;0.70;;
15356;SDS011;7778;48.792;9.260;2023-05-10T15:44:40;0.38;;;0.35;;
15356;SDS011;7778;48.792;9.260;2023-05-10T15:47:29;0.98;;;0.60;;
15356;SDS011;7778;48.792;9.260;2023-05-10T15:50:15;1.83;;;0.80;;
15356;SDS011;7778;48.792;9.260;2023-05-10T15:53:01;0.20;;;0.20;;
15356;SDS011;7778;48.792;9.260;2023-05-10T15:55:46;0.65;;;0.50;;
15356;SDS011;7778;48.792;9.260;2023-05-10T15:58:32;2.13;;;0.30;;
15356;SDS011;7778;48.792;9.260;2023-05-10T16:01:17;0.80;;;0.60;;
15356;SDS011;7778;48.792;9.260;2023-05-10T16:04:04;3.03;;;1.00;;
15356;SDS011;7778;48.792;9.260;2023-05-10T16:06:50;3.72;;;0.60;;
15356;SDS011;7778;48.792;9.260;2023-05-10T16:09:36;0.52;;;0.43;;
15356;SDS011;7778;48.792;9.260;2023-05-10T16:12:22;1.88;;;0.70;;
15356;SDS011;7778;48.792;9.260;2023-05-10T16:15:08;1.13;;;0.88;;
15356;SDS011;7778;48.792;9.260;2023-05-10T16:17:54;0.50;;;0.50;;
15356;SDS011;7778;48.792;9.260;2023-05-10T16:20:41;0.43;;;0.43;;
15356;SDS011;7778;48.792;9.260;2023-05-10T16:23:26;1.02;;;0.57;;
15356;SDS011;7778;48.792;9.260;2023-05-10T16:26:13;2.22;;;0.60;;
15356;SDS011;7778;48.792;9.260;2023-05-10T16:28:59;0.88;;;0.55;;
15356;SDS011;7778;48.792;9.260;2023-05-10T16:31:45;1.33;;;0.40;;
15356;SDS011;7778;48.792;9.260;2023-05-10T16:34:30;2.03;;;0.47;;
15356;SDS011;7778;48.792;9.260;2023-05-10T16:37:17;1.23;;;0.65;;
15356;SDS011;7778;48.792;9.260;2023-05-10T16:40:03;0.82;;;0.40;;
15356;SDS011;7778;48.792;9.260;2023-05-10T16:42:50;0.98;;;0.70;;
15356;SDS011;7778;48.792;9.260;2023-05-10T16:45:36;2.10;;;0.40;;
15356;SDS011;7778;48.792;9.260;2023-05-10T16:48:22;0.98;;;0.60;;
15356;SDS011;7778;48.792;9.260;2023-05-10T16:51:08;0.52;;;0.40;;
15356;SDS011;7778;48.792;9.260;2023-05-10T16:53:56;1.17;;;0.70;;
15356;SDS011;7778;48.792;9.260;2023-05-10T16:56:41;0.55;;;0.30;;
15356;SDS011;7778;48.792;9.260;2023-05-10T16:59:29;0.38;;;0.38;;
15356;SDS011;7778;48.792;9.260;2023-05-10T17:02:15;0.60;;;0.60;;
15356;SDS011;7778;48.792;9.260;2023-05-10T17:05:00;0.40;;;0.40;;
15356;SDS011;7778;48.792;9.260;2023-05-10T17:07:46;1.35;;;0.60;;
15356;SDS011;7778;48.792;9.260;2023-05-10T17:10:34;1.55;;;0.85;;
15356;SDS011;7778;48.792;9.260;2023-05-10T17:13:23;0.63;;;0.50;;